Time;durP1;ratioP1;P1;durP2;ratioP2;P2;SDS_P1;SDS_P2;PMS_P1;PMS_P2;Temp;Humidity;BMP_temperature;BMP_pressure;BME280_temperature;BME280_humidity;BME280_pressure;Samples;Min_cycle;Max_cycle;Signal;HPM_P1;HPM_P2
2023/12/01 00:02:29;;;;;;;71.50;42.40;;;;;;;-1.73;88.21;99212.15;107232;281;154085;-53
2023/12/01 00:05:05;;;;;;;72.10;42.20;;;;;;;-1.82;88.11;99205.73;107297;281;105346;-56
2023/12/01 00:07:47;;;;;;;69.30;40.40;;;;;;;-1.86;88.09;99203.31;107347;281;114581;-57
2023/12/01 00:10:28;;;;;;;71.30;42.80;;;;;;;-1.91;88.21;99208.67;107115;281;154786;-51
2023/12/01 00:13:07;;;;;;;70.00;41.40;;;;;;;-1.91;88.33;99206.34;107332;281;98097;-51
2023/12/01 00:15:47;;;;;;;78.90;43.60;;;;;;;-1.92;88.27;99208.43;107180;280;155906;-51
2023/12/01 00:18:29;;;;;;;77.70;43.60;;;;;;;-1.94;88.16;99205.30;107306;282;104313;-51
2023/12/01 00:21:11;;;;;;;71.70;42.00;;;;;;;-2.00;88.04;99210.60;107149;282;154893;-53
2023/12/01 00:23:47;;;;;;;73.80;43.00;;;;;;;-2.05;88.12;99217.22;107293;282;94849;-56
2023/12/01 00:26:26;;;;;;;75.90;47.10;;;;;;;-2.13;88.14;99218.45;107216;281;154928;-57
2023/12/01 00:29:05;;;;;;;74.80;44.80;;;;;;;-2.17;88.05;99220.06;107302;281;120319;-56
2023/12/01 00:31:45;;;;;;;79.00;45.30;;;;;;;-2.16;88.09;99217.35;107372;281;105191;-57
2023/12/01 00:34:19;;;;;;;77.50;45.70;;;;;;;-2.21;88.26;99221.85;107137;281;153935;-52
2023/12/01 00:36:58;;;;;;;78.70;43.10;;;;;;;-2.24;88.30;99221.41;107343;281;95161;-53
2023/12/01 00:39:40;;;;;;;78.40;44.30;;;;;;;-2.26;88.28;99220.52;107159;281;155444;-54
2023/12/01 00:42:23;;;;;;;71.00;42.10;;;;;;;-2.29;88.31;99223.27;107332;281;118680;-54
2023/12/01 00:45:14;;;;;;;71.20;42.80;;;;;;;-2.27;88.44;99228.05;107171;281;154898;-52
2023/12/01 00:47:53;;;;;;;88.50;47.90;;;;;;;-2.24;88.47;99231.42;107266;281;114556;-51
2023/12/01 00:50:35;;;;;;;87.40;50.00;;;;;;;-2.22;88.59;99229.16;107192;281;155064;-54
2023/12/01 00:53:14;;;;;;;84.40;48.60;;;;;;;-2.22;88.67;99226.14;107274;281;98036;-53
2023/12/01 00:55:50;;;;;;;76.80;44.40;;;;;;;-2.20;88.61;99228.16;107317;281;121504;-51
2023/12/01 00:58:29;;;;;;;71.10;42.10;;;;;;;-2.19;88.65;99222.77;107164;281;155152;-51
2023/12/01 01:01:07;;;;;;;75.90;42.90;;;;;;;-2.18;88.61;99228.10;107382;281;114571;-53
2023/12/01 01:03:44;;;;;;;70.30;43.40;;;;;;;-2.13;88.66;99226.80;107138;281;155640;-55
2023/12/01 01:06:26;;;;;;;78.30;43.50;;;;;;;-2.14;88.83;99231.10;107390;281;96097;-56
2023/12/01 01:09:01;;;;;;;72.60;42.80;;;;;;;-2.14;88.81;99225.83;107224;281;155474;-54
2023/12/01 01:11:37;;;;;;;74.70;42.80;;;;;;;-2.12;88.80;99224.72;107303;281;104934;-54
2023/12/01 01:14:19;;;;;;;74.20;42.90;;;;;;;-2.12;88.82;99223.98;107220;281;156163;-52
2023/12/01 01:17:03;;;;;;;67.80;40.20;;;;;;;-2.14;88.85;99224.35;107285;281;95271;-51
2023/12/01 01:19:45;;;;;;;71.10;40.40;;;;;;;-2.19;88.82;99224.68;107383;281;96477;-55
2023/12/01 01:22:26;;;;;;;70.50;40.20;;;;;;;-2.21;88.95;99222.91;107128;281;155822;-56
2023/12/01 01:25:06;;;;;;;66.60;38.70;;;;;;;-2.23;88.86;99221.66;107391;281;105752;-51
2023/12/01 01:27:47;;;;;;;66.70;40.30;;;;;;;-2.25;88.82;99220.30;107167;282;154969;-51
2023/12/01 01:30:24;;;;;;;68.00;39.10;;;;;;;-2.28;88.82;99215.11;107345;281;94786;-52
2023/12/01 01:33:01;;;;;;;72.20;41.90;;;;;;;-2.33;88.80;99209.23;107170;281;154652;-52
2023/12/01 01:35:45;;;;;;;64.80;39.00;;;;;;;-2.34;88.85;99210.16;107300;281;119354;-55
2023/12/01 01:38:34;;;;;;;65.80;38.50;;;;;;;-2.35;88.92;99205.33;107189;281;155968;-57
2023/12/01 01:41:16;;;;;;;73.40;42.10;;;;;;;-2.38;88.83;99199.40;107227;281;113093;-51
2023/12/01 01:43:56;;;;;;;71.10;40.80;;;;;;;-2.42;88.71;99201.67;107320;281;93437;-53
2023/12/01 01:46:35;;;;;;;75.40;42.90;;;;;;;-2.48;88.71;99204.86;107261;282;98937;-54
2023/12/01 01:49:14;;;;;;;69.10;40.80;;;;;;;-2.58;88.72;99204.22;107350;281;121952;-50
2023/12/01 01:51:56;;;;;;;69.10;40.20;;;;;;;-2.68;88.69;99209.13;107159;281;154914;-51
2023/12/01 01:54:38;;;;;;;71.20;40.40;;;;;;;-2.78;88.52;99214.81;107309;281;114723;-53
2023/12/01 01:57:21;;;;;;;68.10;39.60;;;;;;;-2.83;88.50;99222.66;107143;281;154965;-54
2023/12/01 01:59:57;;;;;;;72.30;41.10;;;;;;;-2.93;88.43;99216.15;107338;282;97094;-56
2023/12/01 02:02:34;;;;;;;69.90;40.10;;;;;;;-3.04;88.47;99210.39;107169;282;156417;-57
2023/12/01 02:05:22;;;;;;;68.60;40.50;;;;;;;-3.11;88.43;99214.71;107319;282;106884;-51
2023/12/01 02:08:27;;;;;;;69.50;40.60;;;;;;;-3.21;88.37;99213.30;107387;282;113373;-52
2023/12/01 02:11:06;;;;;;;73.30;40.60;;;;;;;-3.31;88.40;99206.22;107254;281;94547;-56
2023/12/01 02:13:43;;;;;;;68.10;39.50;;;;;;;-3.36;88.40;99206.64;107358;281;97278;-51
2023/12/01 02:16:24;;;;;;;66.00;38.90;;;;;;;-3.38;88.43;99211.66;107151;281;154916;-51
2023/12/01 02:19:09;;;;;;;69.60;39.30;;;;;;;-3.43;88.39;99213.98;107365;281;105659;-51
2023/12/01 02:21:47;;;;;;;69.80;38.60;;;;;;;-3.53;88.26;99217.09;107219;281;154701;-50
2023/12/01 02:24:34;;;;;;;72.30;40.50;;;;;;;-3.64;88.24;99215.55;107446;281;93215;-56
2023/12/01 02:27:21;;;;;;;67.10;38.70;;;;;;;-3.71;88.32;99225.82;107200;282;154333;-56
2023/12/01 02:29:55;;;;;;;71.70;40.90;;;;;;;-3.76;88.36;99225.05;107315;281;120668;-54
2023/12/01 02:32:34;;;;;;;70.50;40.10;;;;;;;-3.83;88.28;99224.41;107185;281;154839;-54
2023/12/01 02:35:23;;;;;;;73.00;39.20;;;;;;;-3.89;88.30;99222.98;107277;281;114861;-54
2023/12/01 02:38:00;;;;;;;71.70;40.40;;;;;;;-4.02;88.33;99224.83;107356;281;98572;-54
2023/12/01 02:40:34;;;;;;;;;;;;;;;-4.13;88.34;99217.60;107135;282;154808;-53
2023/12/01 02:43:13;;;;;;;66.50;35.60;;;;;;;-4.24;88.38;99216.73;107292;281;121885;-53
2023/12/01 02:45:59;;;;;;;66.00;38.10;;;;;;;-4.33;88.24;99210.84;107144;281;156142;-51
2023/12/01 02:48:38;;;;;;;70.30;38.70;;;;;;;-4.42;88.33;99211.21;107304;281;114009;-53
2023/12/01 02:51:12;;;;;;;70.10;39.00;;;;;;;-4.45;88.33;99210.94;107175;281;156235;-52
2023/12/01 02:53:46;;;;;;;;;;;;;;;-4.52;88.27;99212.02;107367;281;98051;-53
2023/12/01 02:56:33;;;;;;;68.90;36.60;;;;;;;-4.55;88.27;99213.02;107214;281;142086;-53
2023/12/01 02:59:15;;;;;;;72.10;38.70;;;;;;;-4.59;88.40;99216.11;107278;281;105914;-52
2023/12/01 03:01:56;;;;;;;65.70;36.40;;;;;;;-4.66;88.56;99217.42;107322;281;113847;-52
2023/12/01 03:04:35;;;;;;;67.40;37.50;;;;;;;-4.76;88.51;99218.71;107278;281;154122;-56
2023/12/01 03:07:14;;;;;;;71.10;38.90;;;;;;;-4.82;88.36;99223.80;107383;281;98578;-57
2023/12/01 03:10:00;;;;;;;71.80;41.40;;;;;;;-4.87;88.40;99222.42;107151;281;156112;-52
2023/12/01 03:12:42;;;;;;;68.90;37.90;;;;;;;-4.97;88.48;99231.98;107352;281;105223;-52
2023/12/01 03:15:19;;;;;;;69.60;38.60;;;;;;;-5.08;88.40;99236.92;107199;281;156184;-54
2023/12/01 03:17:58;;;;;;;71.20;38.80;;;;;;;-5.14;88.45;99241.64;107372;280;96161;-55
2023/12/01 03:20:36;;;;;;;73.10;39.10;;;;;;;-5.20;88.44;99249.41;107201;281;155506;-54
2023/12/01 03:23:16;;;;;;;72.60;38.90;;;;;;;-5.24;88.51;99252.92;107287;282;120174;-54
2023/12/01 03:25:52;;;;;;;66.40;37.00;;;;;;;-5.31;88.64;99256.65;107322;281;105209;-53
2023/12/01 03:28:34;;;;;;;71.80;38.30;;;;;;;-5.36;88.61;99252.92;107255;280;156884;-53
2023/12/01 03:31:10;;;;;;;68.70;37.10;;;;;;;-5.40;88.52;99249.23;107379;281;95146;-57
2023/12/01 03:33:48;;;;;;;71.70;39.50;;;;;;;-5.44;88.46;99249.86;107143;281;154729;-52
2023/12/01 03:36:25;;;;;;;68.70;37.60;;;;;;;-5.49;88.34;99240.66;107361;281;120473;-53
2023/12/01 03:39:06;;;;;;;70.20;37.70;;;;;;;-5.56;88.22;99242.73;107268;280;155241;-56
2023/12/01 03:41:47;;;;;;;74.20;38.60;;;;;;;-5.62;88.15;99248.65;107297;278;115109;-56
2023/12/01 03:44:29;;;;;;;72.60;38.90;;;;;;;-5.70;88.13;99251.21;107212;273;155153;-56
2023/12/01 03:47:05;;;;;;;74.70;41.50;;;;;;;-5.73;88.19;99256.88;107316;281;97504;-57
2023/12/01 03:49:42;;;;;;;73.70;40.10;;;;;;;-5.77;88.25;99259.80;107373;281;120925;-51
2023/12/01 03:52:24;;;;;;;77.00;41.80;;;;;;;-5.81;88.26;99263.06;107226;281;155157;-51
2023/12/01 03:55:05;;;;;;;72.10;38.40;;;;;;;-5.84;88.22;99263.88;107388;281;113806;-52
2023/12/01 03:57:47;;;;;;;70.10;38.10;;;;;;;-5.89;88.24;99269.00;107223;281;156824;-53
2023/12/01 04:00:23;;;;;;;72.80;39.80;;;;;;;-5.92;88.30;99268.20;107376;281;97467;-52
2023/12/01 04:03:03;;;;;;;72.90;38.70;;;;;;;-5.97;88.23;99267.48;107265;281;156337;-52
2023/12/01 04:05:45;;;;;;;69.60;37.00;;;;;;;-5.99;88.37;99269.23;107377;281;105077;-56
2023/12/01 04:08:29;;;;;;;72.80;38.00;;;;;;;-6.00;88.30;99267.51;107216;281;156283;-56
2023/12/01 04:11:13;;;;;;;69.90;37.40;;;;;;;-6.03;88.21;99264.38;107345;281;96189;-51
2023/12/01 04:13:54;;;;;;;69.10;38.40;;;;;;;-6.07;88.30;99266.61;107407;281;97113;-54
2023/12/01 04:16:34;;;;;;;71.60;39.20;;;;;;;-6.09;88.18;99266.80;107229;281;155127;-54
2023/12/01 04:19:20;;;;;;;69.80;37.20;;;;;;;-6.13;88.18;99263.75;107177;283;104390;-56
2023/12/01 04:21:57;;;;;;;76.40;39.10;;;;;;;-6.21;88.29;99259.48;107127;282;154444;-55
2023/12/01 04:24:44;;;;;;;76.10;41.00;;;;;;;-6.22;88.34;99257.79;107296;282;96310;-53
2023/12/01 04:27:20;;;;;;;79.40;41.00;;;;;;;-6.21;88.42;99255.09;107178;282;156269;-53
2023/12/01 04:29:59;;;;;;;79.50;40.30;;;;;;;-6.15;88.80;99246.40;105684;283;1891000;-52
2023/12/01 04:32:47;;;;;;;81.30;40.30;;;;;;;-6.04;89.06;99242.61;107083;282;155490;-53
2023/12/01 04:35:32;;;;;;;85.60;43.60;;;;;;;-5.91;89.30;99241.40;107230;282;115108;-52
2023/12/01 04:38:09;;;;;;;85.20;42.40;;;;;;;-5.72;89.59;99233.64;107270;282;96874;-51
2023/12/01 04:40:47;;;;;;;88.00;42.90;;;;;;;-5.58;89.82;99228.67;107272;282;98524;-53
2023/12/01 04:43:24;;;;;;;93.10;44.00;;;;;;;-5.44;89.86;99230.27;107265;282;119555;-54
2023/12/01 04:46:04;;;;;;;89.40;45.90;;;;;;;-5.34;89.97;99233.66;107156;282;156297;-51
2023/12/01 04:48:43;;;;;;;90.70;45.40;;;;;;;-5.25;90.11;99236.47;107231;282;114420;-55
2023/12/01 04:51:21;;;;;;;87.90;42.30;;;;;;;-5.18;90.25;99238.74;107097;282;155217;-57
2023/12/01 04:54:00;;;;;;;83.90;42.70;;;;;;;-5.11;90.47;99240.01;107255;282;97467;-53
2023/12/01 04:56:43;;;;;;;84.10;43.40;;;;;;;-5.03;90.54;99238.79;107124;282;155378;-53
2023/12/01 04:59:24;;;;;;;83.30;42.00;;;;;;;-4.91;90.61;99242.41;107280;282;104971;-54
2023/12/01 05:02:01;;;;;;;85.60;42.40;;;;;;;-4.85;90.60;99246.86;107242;282;113227;-54
2023/12/01 05:04:39;;;;;;;88.60;44.50;;;;;;;-4.82;90.51;99252.36;107084;282;155731;-50
2023/12/01 05:07:24;;;;;;;87.70;43.80;;;;;;;-4.82;90.53;99257.13;107283;282;97514;-50
2023/12/01 05:10:08;;;;;;;84.50;42.00;;;;;;;-4.79;90.56;99257.41;107103;282;154902;-56
2023/12/01 05:12:57;;;;;;;87.10;43.40;;;;;;;-4.77;90.50;99256.89;107206;282;104377;-56
2023/12/01 05:15:35;;;;;;;75.40;41.00;;;;;;;-4.75;90.53;99257.48;107098;282;154760;-54
2023/12/01 05:18:11;;;;;;;82.20;39.70;;;;;;;-4.76;90.44;99255.08;107311;281;93433;-54
2023/12/01 05:20:45;;;;;;;80.30;39.80;;;;;;;-4.78;90.51;99258.42;107274;281;156206;-56
2023/12/01 05:23:33;;;;;;;78.60;39.90;;;;;;;-4.76;90.52;99258.09;107339;281;121500;-57
2023/12/01 05:26:11;;;;;;;80.70;41.50;;;;;;;-4.72;90.64;99259.54;107392;281;105646;-57
2023/12/01 05:28:55;;;;;;;81.30;39.20;;;;;;;-4.72;90.63;99258.64;107284;281;115659;-50
2023/12/01 05:31:43;;;;;;;59.60;30.00;;;;;;;-4.72;90.59;99258.45;107368;281;92808;-50
2023/12/01 05:34:22;;;;;;;76.70;38.50;;;;;;;-4.78;90.60;99266.48;107222;281;155294;-52
2023/12/01 05:37:01;;;;;;;74.10;38.30;;;;;;;-4.79;90.58;99268.86;107347;281;118897;-52
2023/12/01 05:39:41;;;;;;;81.80;40.40;;;;;;;-4.81;90.51;99272.69;107188;281;155168;-52
2023/12/01 05:42:26;;;;;;;83.00;41.60;;;;;;;-4.74;90.47;99272.48;107376;281;114782;-53
2023/12/01 05:45:04;;;;;;;81.90;40.60;;;;;;;-4.77;90.44;99272.92;107191;281;156597;-54
2023/12/01 05:47:49;;;;;;;77.50;38.70;;;;;;;-4.81;90.43;99273.39;107359;281;97669;-54
2023/12/01 05:50:26;;;;;;;80.50;39.10;;;;;;;-4.79;90.58;99282.55;107233;281;156273;-54
2023/12/01 05:53:06;;;;;;;82.70;40.80;;;;;;;-4.74;90.66;99290.59;107336;281;105372;-54
2023/12/01 05:55:47;;;;;;;77.90;40.30;;;;;;;-4.72;90.63;99294.09;107393;281;114439;-55
2023/12/01 05:58:33;;;;;;;77.00;40.20;;;;;;;-4.70;90.66;99302.90;107160;281;154989;-55
2023/12/01 06:01:09;;;;;;;82.20;42.80;;;;;;;-4.66;90.52;99306.95;107330;281;97615;-56
2023/12/01 06:03:48;;;;;;;75.30;38.60;;;;;;;-4.56;90.32;99313.55;107208;281;154975;-52
2023/12/01 06:06:28;;;;;;;75.90;39.30;;;;;;;-4.56;90.42;99320.78;107337;281;105443;-51
2023/12/01 06:09:15;;;;;;;72.10;36.80;;;;;;;-4.55;90.47;99329.41;107227;281;155146;-52
2023/12/01 06:11:56;;;;;;;68.40;34.70;;;;;;;-4.46;90.41;99333.34;107364;281;95764;-53
2023/12/01 06:14:35;;;;;;;73.90;37.60;;;;;;;-4.47;90.39;99337.45;107175;281;155417;-56
2023/12/01 06:17:18;;;;;;;71.10;38.40;;;;;;;-4.47;90.51;99339.70;107396;281;120568;-57
2023/12/01 06:19:56;;;;;;;73.50;38.60;;;;;;;-4.50;90.31;99346.41;107395;281;105419;-51
2023/12/01 06:22:33;;;;;;;78.20;39.80;;;;;;;-4.51;90.30;99351.10;107223;281;155951;-51
2023/12/01 06:25:09;;;;;;;78.90;39.90;;;;;;;-4.51;90.37;99353.00;107364;281;93277;-51
2023/12/01 06:27:50;;;;;;;70.60;36.10;;;;;;;-4.46;90.31;99357.70;107239;281;154525;-51
2023/12/01 06:30:37;;;;;;;77.30;36.70;;;;;;;-4.48;90.29;99364.69;107387;281;120486;-57
2023/12/01 06:33:15;;;;;;;82.10;41.10;;;;;;;-4.46;90.03;99366.11;107238;281;155719;-56
2023/12/01 06:35:59;;;;;;;83.60;40.40;;;;;;;-4.46;89.77;99372.64;107353;281;114299;-50
2023/12/01 06:38:38;;;;;;;86.80;38.80;;;;;;;-4.54;89.72;99373.96;107238;281;155188;-54
2023/12/01 06:41:19;;;;;;;83.50;42.50;;;;;;;-4.56;89.89;99372.77;107363;281;97670;-54
2023/12/01 06:43:58;;;;;;;83.80;40.50;;;;;;;-4.53;89.97;99369.70;107431;281;119919;-56
2023/12/01 06:46:35;;;;;;;82.20;40.80;;;;;;;-4.57;89.92;99371.03;107203;281;155263;-54
2023/12/01 06:49:15;;;;;;;81.80;42.80;;;;;;;-4.55;90.00;99363.48;107369;281;115269;-54
2023/12/01 06:51:59;;;;;;;79.80;40.60;;;;;;;-4.50;90.00;99354.39;107167;281;156435;-54
2023/12/01 06:54:37;;;;;;;85.10;39.20;;;;;;;-4.50;90.09;99354.38;107381;281;98554;-51
2023/12/01 06:57:14;;;;;;;72.20;35.50;;;;;;;-4.49;90.15;99358.83;107209;281;154496;-51
2023/12/01 06:59:54;;;;;;;68.50;33.80;;;;;;;-4.48;90.00;99368.27;107359;281;106080;-54
2023/12/01 07:02:37;;;;;;;69.30;34.60;;;;;;;-4.50;90.00;99365.06;107205;281;155886;-55
2023/12/01 07:05:21;;;;;;;72.20;35.70;;;;;;;-4.54;89.91;99370.47;107315;281;96772;-52
2023/12/01 07:08:03;;;;;;;75.90;37.00;;;;;;;-4.54;89.83;99376.13;107373;281;98029;-52
2023/12/01 07:10:40;;;;;;;62.00;32.50;;;;;;;-4.60;89.68;99372.02;107188;281;155068;-56
2023/12/01 07:13:22;;;;;;;70.10;34.30;;;;;;;-4.70;89.72;99367.34;107359;281;104332;-56
2023/12/01 07:16:09;;;;;;;64.50;34.10;;;;;;;-4.73;89.82;99364.79;107195;281;154931;-54
2023/12/01 07:18:52;;;;;;;66.00;32.00;;;;;;;-4.73;89.89;99356.52;107370;281;95592;-51
2023/12/01 07:21:35;;;;;;;66.90;35.00;;;;;;;-4.69;89.96;99358.88;107218;281;155038;-50
2023/12/01 07:24:10;;;;;;;66.10;35.20;;;;;;;-4.68;89.88;99360.55;107357;281;120745;-52
2023/12/01 07:26:51;;;;;;;66.40;34.90;;;;;;;-4.70;89.86;99356.46;107240;281;155048;-52
2023/12/01 07:29:30;;;;;;;70.30;35.70;;;;;;;-4.63;89.98;99361.38;107329;281;113498;-51
2023/12/01 07:32:15;;;;;;;69.30;35.30;;;;;;;-4.62;89.89;99361.95;107334;281;95724;-51
2023/12/01 07:34:58;;;;;;;64.70;34.80;;;;;;;-4.61;89.70;99358.02;107207;281;99206;-54
2023/12/01 07:37:32;;;;;;;65.10;34.30;;;;;;;-4.61;89.81;99355.94;107340;281;121959;-53
2023/12/01 07:40:10;;;;;;;64.60;33.10;;;;;;;-4.60;89.86;99356.38;107161;281;155488;-52
2023/12/01 07:42:47;;;;;;;69.90;34.80;;;;;;;-4.59;89.68;99360.89;107354;281;113278;-51
2023/12/01 07:45:24;;;;;;;67.60;32.10;;;;;;;-4.62;89.85;99372.01;107231;281;155085;-51
2023/12/01 07:48:03;;;;;;;68.90;33.30;;;;;;;-4.63;89.84;99375.91;107344;281;95285;-51
2023/12/01 07:50:41;;;;;;;64.10;33.10;;;;;;;-4.64;89.73;99374.30;107210;281;155272;-53
2023/12/01 07:53:27;;;;;;;65.30;33.00;;;;;;;-4.62;89.76;99375.55;107323;281;104371;-52
2023/12/01 07:56:11;;;;;;;65.40;32.40;;;;;;;-4.61;89.62;99375.44;107343;281;114395;-52
2023/12/01 07:58:51;;;;;;;67.30;31.90;;;;;;;-4.58;89.67;99379.38;107275;281;95213;-53
2023/12/01 08:01:32;;;;;;;67.50;33.90;;;;;;;-4.57;89.53;99381.09;107373;281;98213;-54
2023/12/01 08:04:12;;;;;;;64.40;34.60;;;;;;;-4.57;89.61;99385.64;107254;280;154851;-55
2023/12/01 08:06:49;;;;;;;62.50;32.80;;;;;;;-4.53;89.64;99387.59;107362;280;104993;-54
2023/12/01 08:09:31;;;;;;;60.70;29.60;;;;;;;-4.52;89.53;99391.75;107179;281;155586;-52
2023/12/01 08:12:10;;;;;;;62.90;30.30;;;;;;;-4.69;89.49;99400.29;107297;281;92824;-52
2023/12/01 08:14:44;;;;;;;59.00;28.50;;;;;;;-4.75;89.47;99403.23;107268;280;154404;-53
2023/12/01 08:17:23;;;;;;;56.20;28.40;;;;;;;-4.81;89.29;99403.10;107385;280;119449;-52
2023/12/01 08:20:05;;;;;;;49.60;26.40;;;;;;;-4.86;89.35;99403.33;107333;281;105747;-54
2023/12/01 08:22:46;;;;;;;52.90;26.90;;;;;;;-4.91;89.33;99402.71;107164;281;155719;-53
2023/12/01 08:25:23;;;;;;;47.90;24.60;;;;;;;-5.01;89.23;99403.44;107381;281;96821;-52
2023/12/01 08:28:00;;;;;;;53.50;25.90;;;;;;;-5.11;89.22;99401.25;107287;280;155973;-51
2023/12/01 08:30:44;;;;;;;50.30;26.00;;;;;;;-5.14;89.26;99401.52;107320;280;119969;-51
2023/12/01 08:33:21;;;;;;;53.30;26.60;;;;;;;-5.12;88.98;99400.60;107190;281;155544;-50
2023/12/01 08:35:56;;;;;;;46.80;23.70;;;;;;;-5.07;88.93;99400.92;107329;281;113613;-52
2023/12/01 08:38:35;;;;;;;50.80;26.10;;;;;;;-5.05;88.96;99409.39;107207;280;155183;-52
2023/12/01 08:41:18;;;;;;;49.50;24.10;;;;;;;-4.99;88.93;99411.00;107328;280;96219;-51
2023/12/01 08:43:56;;;;;;;50.90;24.40;;;;;;;-5.09;88.84;99420.94;107395;281;120645;-56
2023/12/01 08:46:37;;;;;;;48.10;24.20;;;;;;;-5.06;88.85;99422.27;107203;281;155424;-57
2023/12/01 08:49:16;;;;;;;49.40;24.00;;;;;;;-5.07;88.62;99420.40;107301;281;115108;-54
2023/12/01 08:51:54;;;;;;;45.30;24.20;;;;;;;-5.11;88.54;99415.42;107213;281;155696;-55
2023/12/01 08:54:30;;;;;;;49.70;25.90;;;;;;;-5.11;88.67;99416.34;107334;281;97007;-53
2023/12/01 08:57:05;;;;;;;49.10;23.50;;;;;;;-5.09;88.62;99424.82;107244;281;156029;-53
2023/12/01 08:59:43;;;;;;;52.40;26.90;;;;;;;-5.07;88.55;99427.63;107372;281;105228;-51
2023/12/01 09:02:28;;;;;;;50.10;25.10;;;;;;;-5.02;88.61;99435.17;107327;281;114288;-50
2023/12/01 09:05:10;;;;;;;45.00;23.30;;;;;;;-5.01;88.60;99431.94;107260;281;96749;-55
2023/12/01 09:07:50;;;;;;;55.00;27.00;;;;;;;-5.00;88.37;99426.77;107355;281;98665;-53
2023/12/01 09:10:29;;;;;;;53.10;25.90;;;;;;;-5.06;88.31;99425.27;107231;279;155905;-52
2023/12/01 09:13:12;;;;;;;50.50;25.30;;;;;;;-5.04;88.19;99425.60;107367;281;104763;-52
2023/12/01 09:15:48;;;;;;;51.40;25.00;;;;;;;-5.05;87.96;99430.30;107208;278;156460;-54
2023/12/01 09:18:28;;;;;;;50.20;25.30;;;;;;;-5.12;87.93;99435.39;107336;281;93808;-54
2023/12/01 09:21:10;;;;;;;48.40;24.30;;;;;;;-5.26;87.80;99432.73;107219;281;155530;-56
2023/12/01 09:23:47;;;;;;;48.90;25.30;;;;;;;-5.32;87.88;99440.55;107273;281;120236;-53
2023/12/01 09:26:22;;;;;;;50.00;23.70;;;;;;;-5.34;87.89;99453.00;107360;281;103368;-53
2023/12/01 09:29:02;;;;;;;52.50;26.10;;;;;;;-5.30;88.06;99450.80;107248;281;113695;-56
2023/12/01 09:31:46;;;;;;;55.40;25.10;;;;;;;-5.21;88.07;99447.83;107338;281;95435;-56
2023/12/01 09:34:23;;;;;;;37.60;18.20;;;;;;;-5.22;88.04;99454.38;107190;281;156118;-54
2023/12/01 09:37:06;;;;;;;43.80;21.80;;;;;;;-5.21;88.17;99462.56;107385;281;120740;-54
2023/12/01 09:39:46;;;;;;;47.10;22.70;;;;;;;-5.25;88.26;99452.50;107201;281;156355;-57
2023/12/01 09:42:25;;;;;;;46.70;23.70;;;;;;;-5.26;88.29;99450.10;107321;281;113904;-57
2023/12/01 09:45:01;;;;;;;45.90;23.80;;;;;;;-5.15;88.21;99448.92;107211;279;156368;-56
2023/12/01 09:47:42;;;;;;;49.70;24.90;;;;;;;-5.15;88.31;99448.27;107355;281;96538;-56
2023/12/01 09:50:22;;;;;;;48.70;25.00;;;;;;;-5.03;88.06;99450.11;107345;281;119574;-51
2023/12/01 09:53:02;;;;;;;51.40;24.20;;;;;;;-5.00;88.09;99450.91;107329;281;106565;-52
2023/12/01 09:55:42;;;;;;;49.60;24.20;;;;;;;-4.97;88.40;99447.39;107348;281;114694;-52
2023/12/01 09:58:22;;;;;;;54.90;25.70;;;;;;;-4.93;88.38;99445.52;107253;281;156218;-52
2023/12/01 10:01:06;;;;;;;49.80;24.70;;;;;;;-4.88;88.53;99450.55;107330;281;97535;-57
2023/12/01 10:03:43;;;;;;;57.50;26.70;;;;;;;-4.76;88.34;99454.36;107181;280;156205;-55
2023/12/01 10:06:25;;;;;;;53.40;25.40;;;;;;;-4.72;88.14;99447.42;107378;280;106182;-56
2023/12/01 10:09:10;;;;;;;47.70;23.60;;;;;;;-4.73;87.99;99447.63;107219;281;155103;-53
2023/12/01 10:11:50;;;;;;;50.50;25.20;;;;;;;-4.82;88.12;99455.38;107361;281;95128;-52
2023/12/01 10:14:27;;;;;;;54.80;25.50;;;;;;;-4.77;88.19;99455.50;107354;281;96452;-53
2023/12/01 10:17:08;;;;;;;53.10;24.20;;;;;;;-4.65;88.14;99448.46;107305;281;121194;-53
2023/12/01 10:19:53;;;;;;;49.30;23.90;;;;;;;-4.58;88.14;99444.23;107361;281;103715;-54
2023/12/01 10:22:40;;;;;;;48.20;25.50;;;;;;;-4.57;88.19;99443.64;107194;281;155480;-54
2023/12/01 10:25:22;;;;;;;50.20;24.90;;;;;;;-4.50;88.06;99450.46;107352;281;93872;-52
2023/12/01 10:28:05;;;;;;;50.70;24.00;;;;;;;-4.45;87.85;99450.08;107181;281;154360;-52
2023/12/01 10:30:57;;;;;;;52.00;24.80;;;;;;;-4.49;88.12;99457.39;107382;281;120495;-53
2023/12/01 10:33:36;;;;;;;57.90;26.90;;;;;;;-4.53;88.22;99462.30;107154;280;155549;-54
2023/12/01 10:36:22;;;;;;;56.50;26.50;;;;;;;-4.52;88.22;99461.65;107325;281;115522;-52
2023/12/01 10:39:04;;;;;;;49.70;24.70;;;;;;;-4.49;88.26;99458.27;107210;281;156563;-51
2023/12/01 10:41:41;;;;;;;53.30;25.30;;;;;;;-4.47;88.22;99455.66;107330;281;96424;-51
2023/12/01 10:44:19;;;;;;;52.30;24.90;;;;;;;-4.45;88.33;99464.79;107331;281;120698;-51
2023/12/01 10:46:55;;;;;;;45.70;23.90;;;;;;;-4.41;87.95;99465.02;107224;281;154875;-52
2023/12/01 10:49:39;;;;;;;50.50;23.40;;;;;;;-4.49;87.90;99463.35;107344;281;114327;-54
2023/12/01 10:52:18;;;;;;;48.20;23.60;;;;;;;-4.45;88.09;99455.19;107201;281;156574;-57
2023/12/01 10:54:56;;;;;;;51.30;24.80;;;;;;;-4.43;88.24;99450.06;107402;281;98705;-53
2023/12/01 10:57:44;;;;;;;61.10;28.90;;;;;;;-4.44;88.38;99447.36;107222;281;154369;-53
2023/12/01 11:00:30;;;;;;;52.30;25.10;;;;;;;-4.43;88.38;99449.56;107357;281;105119;-54
2023/12/01 11:03:10;;;;;;;51.90;26.50;;;;;;;-4.48;88.36;99454.83;107186;281;155843;-54
2023/12/01 11:05:51;;;;;;;57.30;25.20;;;;;;;-4.46;88.28;99450.67;107361;281;96941;-57
2023/12/01 11:08:47;;;;;;;62.00;28.00;;;;;;;-4.54;88.23;99450.95;107357;281;95404;-57
2023/12/01 11:11:41;;;;;;;57.10;25.00;;;;;;;-4.49;88.14;99451.25;107305;281;120375;-58
2023/12/01 11:14:29;;;;;;;55.90;25.80;;;;;;;-4.55;88.30;99453.96;107337;281;105658;-57
2023/12/01 11:17:09;;;;;;;48.70;25.00;;;;;;;-4.51;88.36;99453.66;107240;281;114740;-56
2023/12/01 11:19:46;;;;;;;54.10;24.60;;;;;;;-4.52;88.39;99455.50;107382;281;94401;-57
2023/12/01 11:22:38;;;;;;;44.60;23.40;;;;;;;-4.48;88.40;99453.13;107250;281;155030;-57
2023/12/01 11:25:46;;;;;;;51.30;23.30;;;;;;;-4.50;88.41;99448.16;107399;281;120859;-55
2023/12/01 11:28:39;;;;;;;56.10;25.20;;;;;;;-4.39;88.15;99444.52;107240;281;154735;-54
2023/12/01 11:31:19;;;;;;;56.40;25.10;;;;;;;-4.36;87.94;99450.22;107360;281;114036;-52
2023/12/01 11:34:09;;;;;;;54.30;24.70;;;;;;;-4.35;87.93;99451.92;107209;281;154405;-56
2023/12/01 11:36:52;;;;;;;59.10;26.50;;;;;;;-4.38;87.90;99457.39;107392;281;97143;-57
2023/12/01 11:39:34;;;;;;;58.10;26.50;;;;;;;-4.38;88.01;99453.54;107179;281;154931;-52
2023/12/01 11:42:22;;;;;;;59.00;27.00;;;;;;;-4.37;87.98;99443.11;107384;281;105183;-52
2023/12/01 11:45:02;;;;;;;64.00;27.80;;;;;;;-4.43;87.96;99439.91;107201;281;156749;-53
2023/12/01 11:47:42;;;;;;;59.00;25.90;;;;;;;-4.39;87.78;99444.16;107325;281;94917;-53
2023/12/01 11:50:20;;;;;;;53.50;25.30;;;;;;;-4.34;87.99;99443.55;107358;281;97886;-53
2023/12/01 11:52:59;;;;;;;53.50;25.30;;;;;;;-4.27;88.12;99442.63;107159;281;153800;-52
2023/12/01 11:55:34;;;;;;;50.30;25.00;;;;;;;-4.13;88.33;99446.11;107361;281;106273;-56
2023/12/01 11:58:17;;;;;;;49.20;23.50;;;;;;;-4.04;88.18;99453.15;107219;281;155939;-57
2023/12/01 12:01:03;;;;;;;49.50;23.00;;;;;;;-4.05;87.82;99463.80;107330;281;96302;-56
2023/12/01 12:03:56;;;;;;;45.70;24.00;;;;;;;-4.10;88.01;99460.88;107228;281;154778;-51
2023/12/01 12:06:36;;;;;;;51.00;22.90;;;;;;;-4.07;88.27;99470.86;107372;281;121699;-51
2023/12/01 12:09:19;;;;;;;49.30;23.30;;;;;;;-4.01;88.29;99468.59;107238;281;154878;-53
2023/12/01 12:12:04;;;;;;;46.20;21.50;;;;;;;-3.92;88.19;99467.85;107273;281;114005;-53
2023/12/01 12:14:46;;;;;;;42.90;21.20;;;;;;;-3.95;87.93;99459.67;107360;281;92754;-54